createdAt,value
2023-12-30T00:01:03.811Z,44.57
2023-12-30T00:03:30.996Z,40.63
2023-12-30T00:05:58.086Z,42.17
2023-12-30T00:08:25.217Z,44.17
2023-12-30T00:10:52.208Z,43.23
2023-12-30T00:13:19.282Z,42.53
2023-12-30T00:15:46.481Z,43.50
2023-12-30T00:18:13.697Z,43.07
2023-12-30T00:20:40.755Z,43.87
2023-12-30T00:23:08.452Z,42.77
2023-12-30T00:25:35.959Z,43.17
2023-12-30T00:28:03.830Z,44.27
2023-12-30T00:30:31.020Z,40.93
2023-12-30T00:32:58.149Z,40.47
2023-12-30T00:35:25.196Z,40.43
2023-12-30T00:37:54.478Z,42.13
2023-12-30T00:40:26.725Z,41.47
2023-12-30T00:42:54.773Z,43.60
2023-12-30T00:45:22.081Z,42.63
2023-12-30T00:47:49.213Z,43.10
2023-12-30T00:50:17.424Z,43.70
2023-12-30T00:52:44.435Z,43.47
2023-12-30T00:55:11.780Z,43.87
2023-12-30T00:57:38.942Z,44.53
2023-12-30T01:00:07.120Z,43.57
2023-12-30T01:02:34.244Z,44.37
2023-12-30T01:05:01.331Z,44.07
2023-12-30T01:07:28.482Z,42.10
2023-12-30T01:09:55.577Z,45.70
2023-12-30T01:12:22.730Z,46.00
2023-12-30T01:14:49.758Z,46.93
2023-12-30T01:17:16.865Z,47.10
2023-12-30T01:19:44.139Z,49.27
2023-12-30T01:22:12.373Z,45.73
2023-12-30T01:24:39.498Z,45.83
2023-12-30T01:27:06.595Z,44.67
2023-12-30T01:29:33.597Z,43.90
2023-12-30T01:32:00.556Z,44.17
2023-12-30T01:34:27.835Z,45.37
2023-12-30T01:36:55.984Z,45.57
2023-12-30T01:39:23.096Z,45.47
2023-12-30T01:41:52.873Z,46.60
2023-12-30T01:44:19.996Z,44.90
2023-12-30T01:46:47.547Z,41.73
2023-12-30T01:49:15.380Z,43.90
2023-12-30T01:51:42.653Z,42.40
2023-12-30T01:54:10.575Z,40.30
2023-12-30T01:56:37.726Z,37.13
2023-12-30T01:59:06.622Z,38.77
2023-12-30T02:01:34.597Z,37.00
2023-12-30T02:04:02.315Z,34.70
2023-12-30T02:06:29.372Z,36.87
2023-12-30T02:08:56.662Z,37.63
2023-12-30T02:11:23.779Z,38.07
2023-12-30T02:13:51.123Z,37.30
2023-12-30T02:16:18.282Z,36.73
2023-12-30T02:18:45.596Z,34.77
2023-12-30T02:21:12.836Z,37.00
2023-12-30T02:23:41.489Z,35.23
2023-12-30T02:26:11.651Z,37.03
2023-12-30T02:28:38.721Z,36.37
2023-12-30T02:31:05.961Z,34.73
2023-12-30T02:33:33.092Z,34.27
2023-12-30T02:36:00.175Z,36.73
2023-12-30T02:38:27.192Z,34.63
2023-12-30T02:40:54.169Z,36.57
2023-12-30T02:43:21.328Z,35.70
2023-12-30T02:45:48.593Z,35.90
2023-12-30T02:48:15.953Z,34.63
2023-12-30T02:50:43.127Z,38.17
2023-12-30T02:53:10.197Z,35.93
2023-12-30T02:55:37.199Z,36.47
2023-12-30T02:58:04.438Z,36.43
2023-12-30T03:00:31.475Z,36.70
2023-12-30T03:02:59.908Z,36.43
2023-12-30T03:05:29.355Z,36.80
2023-12-30T03:07:58.953Z,38.30
2023-12-30T03:10:26.295Z,38.30
2023-12-30T03:12:53.487Z,38.13
2023-12-30T03:15:21.773Z,39.07
2023-12-30T03:17:50.446Z,37.23
2023-12-30T03:20:17.525Z,38.20
2023-12-30T03:22:44.594Z,37.70
2023-12-30T03:25:12.239Z,37.83
2023-12-30T03:27:39.298Z,37.17
2023-12-30T03:30:07.332Z,38.87
2023-12-30T03:32:34.556Z,38.50
2023-12-30T03:35:01.768Z,37.70
2023-12-30T03:37:28.874Z,37.87
2023-12-30T03:39:56.187Z,40.17
2023-12-30T03:42:23.288Z,37.83
2023-12-30T03:44:50.373Z,38.20
2023-12-30T03:47:17.505Z,39.83
2023-12-30T03:49:44.713Z,37.43
2023-12-30T03:52:12.747Z,36.83
2023-12-30T03:54:39.784Z,36.50
2023-12-30T03:57:06.728Z,39.57
2023-12-30T03:59:33.897Z,37.77
2023-12-30T04:02:00.937Z,37.53
2023-12-30T04:04:29.728Z,38.20
2023-12-30T04:06:57.032Z,35.43
2023-12-30T04:09:25.145Z,37.00
2023-12-30T04:11:52.316Z,34.80
2023-12-30T04:14:19.488Z,36.47
2023-12-30T04:16:46.892Z,37.10
2023-12-30T04:19:14.186Z,37.97
2023-12-30T04:21:41.253Z,35.13
2023-12-30T04:24:08.702Z,38.83
2023-12-30T04:26:36.233Z,36.43
2023-12-30T04:29:03.285Z,36.53
2023-12-30T04:31:30.675Z,37.77
2023-12-30T04:33:57.851Z,39.10
2023-12-30T04:36:24.922Z,36.63
2023-12-30T04:38:52.848Z,36.37
2023-12-30T04:41:22.257Z,36.43
2023-12-30T04:43:49.565Z,37.97
2023-12-30T04:46:16.773Z,38.10
2023-12-30T04:48:43.993Z,38.30
2023-12-30T04:51:11.098Z,38.40
2023-12-30T04:53:39.468Z,36.47
2023-12-30T04:56:08.151Z,37.07
2023-12-30T04:58:35.586Z,36.87
2023-12-30T05:01:03.510Z,39.30
2023-12-30T05:03:30.687Z,39.47
2023-12-30T05:05:58.445Z,38.43
2023-12-30T05:08:25.582Z,37.47
2023-12-30T05:10:52.558Z,38.80
2023-12-30T05:13:19.788Z,38.80
2023-12-30T05:15:46.921Z,36.87
2023-12-30T05:18:14.313Z,37.90
2023-12-30T05:20:42.092Z,38.30
2023-12-30T05:23:09.570Z,39.00
2023-12-30T05:25:36.860Z,38.97
2023-12-30T05:28:04.175Z,39.77
2023-12-30T05:30:31.236Z,37.37
2023-12-30T05:32:58.293Z,38.97
2023-12-30T05:35:25.572Z,40.33
2023-12-30T05:37:52.622Z,38.10
2023-12-30T05:40:19.960Z,41.17
2023-12-30T05:42:47.019Z,39.87
2023-12-30T05:45:14.097Z,38.40
2023-12-30T05:47:41.067Z,39.53
2023-12-30T05:50:08.938Z,38.80
2023-12-30T05:52:36.012Z,38.17
2023-12-30T05:55:03.642Z,40.33
2023-12-30T05:57:32.539Z,39.33
2023-12-30T06:00:00.350Z,39.43
2023-12-30T06:02:27.446Z,39.57
2023-12-30T06:04:54.552Z,39.77
2023-12-30T06:07:21.697Z,41.27
2023-12-30T06:09:48.813Z,40.40
2023-12-30T06:12:15.933Z,38.83
2023-12-30T06:14:42.948Z,39.37
2023-12-30T06:17:10.022Z,36.90
2023-12-30T06:19:37.059Z,37.10
2023-12-30T06:22:04.213Z,38.17
2023-12-30T06:24:31.254Z,39.33
2023-12-30T06:26:58.331Z,37.80
2023-12-30T06:29:29.655Z,38.73
2023-12-30T06:31:58.704Z,37.43
2023-12-30T06:34:25.950Z,36.87
2023-12-30T06:36:53.005Z,34.07
2023-12-30T06:39:21.370Z,37.97
2023-12-30T06:41:48.468Z,37.40
2023-12-30T06:44:15.712Z,38.57
2023-12-30T06:46:42.811Z,39.13
2023-12-30T06:49:10.317Z,39.87
2023-12-30T06:51:37.592Z,41.20
2023-12-30T06:54:04.749Z,39.60
2023-12-30T06:56:31.831Z,38.67
2023-12-30T06:58:58.942Z,36.47
2023-12-30T07:01:26.593Z,39.77
2023-12-30T07:03:54.207Z,37.97
2023-12-30T07:06:21.757Z,39.37
2023-12-30T07:08:48.912Z,37.03
2023-12-30T07:11:15.948Z,38.80
2023-12-30T07:13:42.957Z,38.50
2023-12-30T07:16:10.082Z,37.73
2023-12-30T07:18:37.147Z,38.20
2023-12-30T07:21:04.418Z,39.40
2023-12-30T07:23:31.429Z,39.00
2023-12-30T07:25:58.554Z,39.83
2023-12-30T07:28:25.621Z,39.97
2023-12-30T07:30:52.771Z,39.40
2023-12-30T07:33:20.050Z,40.63
2023-12-30T07:35:47.618Z,40.93
2023-12-30T07:38:14.844Z,41.07
2023-12-30T07:40:41.972Z,40.33
2023-12-30T07:43:09.741Z,41.27
2023-12-30T07:45:36.879Z,40.67
2023-12-30T07:48:04.277Z,40.43
2023-12-30T07:50:31.296Z,40.63
2023-12-30T07:52:58.293Z,39.70
2023-12-30T07:55:25.780Z,39.87
2023-12-30T07:57:52.965Z,41.00
2023-12-30T08:00:20.123Z,40.43
2023-12-30T08:02:47.295Z,40.90
2023-12-30T08:05:14.493Z,42.83
2023-12-30T08:07:41.603Z,41.63
2023-12-30T08:10:09.139Z,40.13
2023-12-30T08:12:38.047Z,43.30
2023-12-30T08:15:05.820Z,44.47
2023-12-30T08:17:33.224Z,41.83
2023-12-30T08:20:00.396Z,42.03
2023-12-30T08:22:27.482Z,42.00
2023-12-30T08:24:55.247Z,43.30
2023-12-30T08:27:22.506Z,42.80
2023-12-30T08:29:49.945Z,43.33
2023-12-30T08:32:17.323Z,42.47
2023-12-30T08:34:44.402Z,43.80
2023-12-30T08:37:11.619Z,43.27
2023-12-30T08:39:39.113Z,44.60
2023-12-30T08:42:07.876Z,43.83
2023-12-30T08:44:39.096Z,45.07
2023-12-30T08:47:07.141Z,44.33
2023-12-30T08:49:34.510Z,44.20
2023-12-30T08:52:01.699Z,44.47
2023-12-30T08:54:29.196Z,43.97
2023-12-30T08:56:56.330Z,44.77
2023-12-30T08:59:25.791Z,45.07
2023-12-30T09:01:53.348Z,44.90
2023-12-30T09:04:20.794Z,44.30
2023-12-30T09:06:48.079Z,43.87
2023-12-30T09:09:15.114Z,43.93
2023-12-30T09:11:44.251Z,44.63
2023-12-30T09:14:12.039Z,43.73
2023-12-30T09:16:39.146Z,43.83
2023-12-30T09:19:06.510Z,46.27
2023-12-30T09:21:33.687Z,44.97
2023-12-30T09:24:00.691Z,43.20
2023-12-30T09:26:27.780Z,45.23
2023-12-30T09:28:54.808Z,47.57
2023-12-30T09:31:22.038Z,46.60
2023-12-30T09:33:50.403Z,46.43
2023-12-30T09:36:18.848Z,44.13
2023-12-30T09:38:45.988Z,44.40
2023-12-30T09:41:14.705Z,43.57
2023-12-30T09:43:43.329Z,43.87
2023-12-30T09:46:10.857Z,45.30
2023-12-30T09:48:40.764Z,42.60
2023-12-30T09:51:08.374Z,44.20
2023-12-30T09:53:35.471Z,42.83
2023-12-30T09:56:03.936Z,42.95
2023-12-30T09:58:32.977Z,42.60
2023-12-30T10:01:00.172Z,42.43
2023-12-30T10:03:29.794Z,42.73
2023-12-30T10:06:00.916Z,41.63
2023-12-30T10:08:29.836Z,41.57
2023-12-30T10:10:58.575Z,42.33
2023-12-30T10:13:28.782Z,43.83
2023-12-30T10:16:04.332Z,44.10
2023-12-30T10:18:39.055Z,42.33
2023-12-30T10:21:08.135Z,42.13
2023-12-30T10:23:36.174Z,40.37
2023-12-30T10:26:04.871Z,39.57
2023-12-30T10:28:32.069Z,40.07
2023-12-30T10:31:03.579Z,41.13
2023-12-30T10:33:31.701Z,41.77
2023-12-30T10:35:58.881Z,42.23
2023-12-30T10:38:27.453Z,44.00
2023-12-30T10:40:55.690Z,42.03
2023-12-30T10:43:23.221Z,41.30
2023-12-30T10:45:59.331Z,41.47
2023-12-30T10:48:33.172Z,42.03
2023-12-30T10:51:01.586Z,45.73
2023-12-30T10:53:32.583Z,43.20
2023-12-30T10:56:04.901Z,44.90
2023-12-30T10:58:38.104Z,44.43
2023-12-30T11:01:06.401Z,46.47
2023-12-30T11:03:35.986Z,45.03
2023-12-30T11:06:25.137Z,45.73
2023-12-30T11:09:00.330Z,43.90
2023-12-30T11:11:27.375Z,44.13
2023-12-30T11:13:58.454Z,42.53
2023-12-30T11:16:25.589Z,43.27
2023-12-30T11:19:02.671Z,41.03
2023-12-30T11:21:47.922Z,41.27
2023-12-30T11:24:16.489Z,43.37
2023-12-30T11:26:46.846Z,42.37
2023-12-30T11:29:18.324Z,42.53
2023-12-30T11:31:47.375Z,43.23
2023-12-30T11:34:19.116Z,41.97
2023-12-30T11:36:48.357Z,42.97
2023-12-30T11:39:29.421Z,41.43
2023-12-30T11:41:59.562Z,40.70
2023-12-30T11:44:28.667Z,40.10
2023-12-30T11:46:55.822Z,38.63
2023-12-30T11:49:24.530Z,42.80
2023-12-30T11:51:52.742Z,40.27
2023-12-30T11:54:19.782Z,42.03
2023-12-30T11:56:47.076Z,45.40
2023-12-30T11:59:14.440Z,44.80
2023-12-30T12:01:43.215Z,44.47
2023-12-30T12:04:11.283Z,42.40
2023-12-30T12:06:38.441Z,43.87
2023-12-30T12:09:07.338Z,42.30
2023-12-30T12:11:34.415Z,40.67
2023-12-30T12:14:03.034Z,40.17
2023-12-30T12:16:33.195Z,38.57
2023-12-30T12:19:04.851Z,39.90
2023-12-30T12:21:32.218Z,40.13
2023-12-30T12:23:59.283Z,41.60
2023-12-30T12:26:29.136Z,41.47
2023-12-30T12:28:59.210Z,40.47
2023-12-30T12:31:31.556Z,41.67
2023-12-30T12:33:58.909Z,41.10
2023-12-30T12:36:26.229Z,43.23
2023-12-30T12:38:53.365Z,42.57
2023-12-30T12:41:20.366Z,43.73
2023-12-30T12:43:47.796Z,43.67
2023-12-30T12:46:15.699Z,43.37
2023-12-30T12:48:42.891Z,44.60
2023-12-30T12:51:09.953Z,43.47
2023-12-30T12:53:37.304Z,45.10
2023-12-30T12:56:05.846Z,42.07
2023-12-30T12:58:34.105Z,44.20
2023-12-30T13:01:01.322Z,43.43
2023-12-30T13:03:28.672Z,44.80
2023-12-30T13:05:55.976Z,44.57
2023-12-30T13:08:26.234Z,43.23
2023-12-30T13:10:53.505Z,43.43
2023-12-30T13:13:20.910Z,43.77
2023-12-30T13:15:48.057Z,45.67
2023-12-30T13:18:20.071Z,44.03
2023-12-30T13:20:47.647Z,45.00
2023-12-30T13:23:16.922Z,44.23
2023-12-30T13:25:44.419Z,44.40
2023-12-30T13:28:12.645Z,43.43
2023-12-30T13:30:41.611Z,42.97
2023-12-30T13:33:11.843Z,42.50
2023-12-30T13:35:40.253Z,40.10
2023-12-30T13:38:11.168Z,39.00
2023-12-30T13:40:38.289Z,40.30
2023-12-30T13:43:10.429Z,39.00
2023-12-30T13:45:43.166Z,41.63
2023-12-30T13:48:25.423Z,39.50
2023-12-30T13:50:56.709Z,39.70
2023-12-30T13:53:25.775Z,40.83
2023-12-30T13:55:59.623Z,42.10
2023-12-30T13:58:26.885Z,43.50
2023-12-30T14:00:56.579Z,40.30
2023-12-30T14:03:26.695Z,40.23
2023-12-30T14:05:53.952Z,41.23
2023-12-30T14:08:31.944Z,38.60
2023-12-30T14:11:03.968Z,40.03
2023-12-30T14:13:31.547Z,39.93
2023-12-30T14:15:58.854Z,40.80
2023-12-30T14:18:26.260Z,41.80
2023-12-30T14:20:53.379Z,40.10
2023-12-30T14:23:20.397Z,41.03
2023-12-30T14:25:47.572Z,38.83
2023-12-30T14:28:15.170Z,39.63
2023-12-30T14:30:42.463Z,40.07
2023-12-30T14:33:10.191Z,39.73
2023-12-30T14:35:37.502Z,38.93
2023-12-30T14:38:06.029Z,39.27
2023-12-30T14:40:33.260Z,40.70
2023-12-30T14:43:00.709Z,40.80
2023-12-30T14:45:27.914Z,39.30
2023-12-30T14:47:55.045Z,41.77
2023-12-30T14:50:22.203Z,42.03
2023-12-30T14:52:49.363Z,40.93
2023-12-30T14:55:18.305Z,40.60
2023-12-30T14:57:46.892Z,42.07
2023-12-30T15:00:15.458Z,41.40
2023-12-30T15:02:44.308Z,41.53
2023-12-30T15:05:14.835Z,42.27
2023-12-30T15:07:43.717Z,41.57
2023-12-30T15:10:12.251Z,41.43
2023-12-30T15:12:40.775Z,41.03
2023-12-30T15:15:09.261Z,41.93
2023-12-30T15:17:36.565Z,41.67
2023-12-30T15:20:07.304Z,40.90
2023-12-30T15:22:36.126Z,40.03
2023-12-30T15:25:03.326Z,40.93
2023-12-30T15:27:31.092Z,42.17
2023-12-30T15:29:58.145Z,41.63
2023-12-30T15:32:25.328Z,42.67
2023-12-30T15:34:52.546Z,41.90
2023-12-30T15:37:19.628Z,39.80
2023-12-30T15:39:46.649Z,40.43
2023-12-30T15:42:13.934Z,40.43
2023-12-30T15:44:41.205Z,41.43
2023-12-30T15:47:11.025Z,40.00
2023-12-30T15:49:41.304Z,42.10
2023-12-30T15:52:10.924Z,42.53
2023-12-30T15:54:41.144Z,41.73
2023-12-30T15:57:08.164Z,39.67
2023-12-30T15:59:35.908Z,39.20
2023-12-30T16:02:03.560Z,41.87
2023-12-30T16:04:30.709Z,38.53
2023-12-30T16:06:58.050Z,43.23
2023-12-30T16:09:25.475Z,41.40
2023-12-30T16:11:52.611Z,40.80
2023-12-30T16:14:19.688Z,42.20
2023-12-30T16:16:47.258Z,41.47
2023-12-30T16:19:16.985Z,40.53
2023-12-30T16:21:46.442Z,42.13
2023-12-30T16:24:14.730Z,44.30
2023-12-30T16:26:42.412Z,45.03
2023-12-30T16:29:09.971Z,43.13
2023-12-30T16:31:37.941Z,41.13
2023-12-30T16:34:05.621Z,44.87
2023-12-30T16:36:34.391Z,40.90
2023-12-30T16:39:02.383Z,40.73
2023-12-30T16:41:29.505Z,42.10
2023-12-30T16:43:58.800Z,41.73
2023-12-30T16:46:26.355Z,41.13
2023-12-30T16:48:54.733Z,42.10
2023-12-30T16:51:22.117Z,42.63
2023-12-30T16:53:49.447Z,38.83
2023-12-30T16:56:16.942Z,41.73
2023-12-30T16:58:44.112Z,42.67
2023-12-30T17:01:11.268Z,40.80
2023-12-30T17:03:38.575Z,40.30
2023-12-30T17:06:06.054Z,43.83
2023-12-30T17:08:33.164Z,45.43
2023-12-30T17:11:00.440Z,44.23
2023-12-30T17:13:35.044Z,46.83
2023-12-30T17:16:07.386Z,44.00
2023-12-30T17:18:34.649Z,44.37
2023-12-30T17:21:01.741Z,46.80
2023-12-30T17:23:28.780Z,44.67
2023-12-30T17:25:55.919Z,45.40
2023-12-30T17:28:22.976Z,45.27
2023-12-30T17:30:50.795Z,46.00
2023-12-30T17:33:18.035Z,45.97
2023-12-30T17:35:45.186Z,44.60
2023-12-30T17:38:12.273Z,44.23
2023-12-30T17:40:39.341Z,43.83
2023-12-30T17:43:06.756Z,45.00
2023-12-30T17:45:33.936Z,42.57
2023-12-30T17:48:01.132Z,45.00
2023-12-30T17:50:29.731Z,47.70
2023-12-30T17:52:56.775Z,43.00
2023-12-30T17:55:23.930Z,44.63
2023-12-30T17:57:51.256Z,44.63
2023-12-30T18:00:18.689Z,45.67
2023-12-30T18:02:45.902Z,43.37
2023-12-30T18:05:13.230Z,44.67
2023-12-30T18:07:40.527Z,45.87
2023-12-30T18:10:07.677Z,42.83
2023-12-30T18:12:34.820Z,43.03
2023-12-30T18:15:04.685Z,44.70
2023-12-30T18:17:32.992Z,48.00
2023-12-30T18:20:00.377Z,46.10
2023-12-30T18:22:27.861Z,43.17
2023-12-30T18:24:54.944Z,40.50
2023-12-30T18:27:23.803Z,41.47
2023-12-30T18:29:50.820Z,45.20
2023-12-30T18:32:17.883Z,45.13
2023-12-30T18:34:45.051Z,44.07
2023-12-30T18:37:15.352Z,42.27
2023-12-30T18:39:42.890Z,38.03
2023-12-30T18:42:10.237Z,38.87
2023-12-30T18:44:37.365Z,40.60
2023-12-30T18:47:04.553Z,43.03
2023-12-30T18:49:31.761Z,43.67
2023-12-30T18:51:58.779Z,45.67
2023-12-30T18:54:25.793Z,44.50
2023-12-30T18:56:52.861Z,43.43
2023-12-30T18:59:20.091Z,41.73
2023-12-30T19:01:47.231Z,46.30
2023-12-30T19:04:14.723Z,45.20
2023-12-30T19:06:41.831Z,43.37
2023-12-30T19:09:10.083Z,42.37
2023-12-30T19:11:37.147Z,37.30
2023-12-30T19:14:04.270Z,39.67
2023-12-30T19:16:31.585Z,37.97
2023-12-30T19:18:59.135Z,39.40
2023-12-30T19:21:26.334Z,42.07
2023-12-30T19:23:53.576Z,42.43
2023-12-30T19:26:20.855Z,43.00
2023-12-30T19:28:47.909Z,42.00
2023-12-30T19:31:15.093Z,43.20
2023-12-30T19:33:43.234Z,46.87
2023-12-30T19:36:11.746Z,42.97
2023-12-30T19:38:39.309Z,42.40
2023-12-30T19:41:06.365Z,45.83
2023-12-30T19:43:35.581Z,41.77
2023-12-30T19:46:07.163Z,46.97
2023-12-30T19:48:35.558Z,48.17
2023-12-30T19:51:05.082Z,44.67
2023-12-30T19:53:33.380Z,45.00
2023-12-30T19:56:02.039Z,43.90
2023-12-30T19:58:32.570Z,48.17
2023-12-30T20:00:59.922Z,45.87
2023-12-30T20:03:27.228Z,42.07
2023-12-30T20:05:54.815Z,44.43
2023-12-30T20:08:22.299Z,45.27
2023-12-30T20:10:49.790Z,47.87
2023-12-30T20:13:17.068Z,44.50
2023-12-30T20:15:44.177Z,46.43
2023-12-30T20:18:11.510Z,45.87
2023-12-30T20:20:38.776Z,46.43
2023-12-30T20:23:06.577Z,44.80
2023-12-30T20:25:34.047Z,43.80
2023-12-30T20:28:01.589Z,43.83
2023-12-30T20:30:28.952Z,46.63
2023-12-30T20:32:56.196Z,49.30
2023-12-30T20:35:23.423Z,46.60
2023-12-30T20:37:50.608Z,48.03
2023-12-30T20:40:18.955Z,46.43
2023-12-30T20:42:46.166Z,48.33
2023-12-30T20:45:15.364Z,47.70
2023-12-30T20:47:42.611Z,49.60
2023-12-30T20:50:10.046Z,45.77
2023-12-30T20:52:39.112Z,45.77
2023-12-30T20:55:07.702Z,45.73
2023-12-30T20:57:34.862Z,47.83
2023-12-30T21:00:01.979Z,50.37
2023-12-30T21:02:29.506Z,49.57
2023-12-30T21:04:58.078Z,46.27
2023-12-30T21:07:25.359Z,50.37
2023-12-30T21:09:52.444Z,45.77
2023-12-30T21:12:19.537Z,46.33
2023-12-30T21:14:46.582Z,50.20
2023-12-30T21:17:13.840Z,49.17
2023-12-30T21:19:41.553Z,49.20
2023-12-30T21:22:09.410Z,49.90
2023-12-30T21:24:40.335Z,46.47
2023-12-30T21:27:07.503Z,50.03
2023-12-30T21:29:37.756Z,46.10
2023-12-30T21:32:05.769Z,49.53
2023-12-30T21:34:32.924Z,49.70
2023-12-30T21:36:59.964Z,45.47
2023-12-30T21:39:27.173Z,46.40
2023-12-30T21:41:54.263Z,47.53
2023-12-30T21:44:21.638Z,44.70
2023-12-30T21:46:48.795Z,44.13
2023-12-30T21:49:16.832Z,45.83
2023-12-30T21:51:44.908Z,46.13
2023-12-30T21:54:13.558Z,46.40
2023-12-30T21:56:41.229Z,46.50
2023-12-30T21:59:08.721Z,48.93
2023-12-30T22:01:37.357Z,45.80
2023-12-30T22:04:05.617Z,48.83
2023-12-30T22:06:33.324Z,49.47
2023-12-30T22:09:00.408Z,44.97
2023-12-30T22:11:28.814Z,44.27
2023-12-30T22:13:56.839Z,43.27
2023-12-30T22:16:24.203Z,43.40
2023-12-30T22:18:51.471Z,42.87
2023-12-30T22:21:19.277Z,43.87
2023-12-30T22:23:48.132Z,46.03
2023-12-30T22:26:20.572Z,46.03
2023-12-30T22:28:48.067Z,49.93
2023-12-30T22:31:15.292Z,48.57
2023-12-30T22:33:43.129Z,46.87
2023-12-30T22:36:10.305Z,53.73
2023-12-30T22:38:38.288Z,50.03
2023-12-30T22:41:05.315Z,50.33
2023-12-30T22:43:32.427Z,50.87
2023-12-30T22:45:59.487Z,50.07
2023-12-30T22:48:26.509Z,50.37
2023-12-30T22:50:53.642Z,49.37
2023-12-30T22:53:20.719Z,46.37
2023-12-30T22:55:47.839Z,49.03
2023-12-30T22:58:14.955Z,49.07
2023-12-30T23:00:42.040Z,46.53
2023-12-30T23:03:09.406Z,48.10
2023-12-30T23:05:36.659Z,49.30
2023-12-30T23:08:03.869Z,47.90
2023-12-30T23:10:31.082Z,49.00
2023-12-30T23:12:58.097Z,50.90
2023-12-30T23:15:25.145Z,50.47
2023-12-30T23:17:52.550Z,50.87
2023-12-30T23:20:22.474Z,49.73
2023-12-30T23:22:49.789Z,51.20
2023-12-30T23:25:17.104Z,49.67
2023-12-30T23:27:45.087Z,51.87
2023-12-30T23:30:13.178Z,50.97
2023-12-30T23:32:40.264Z,48.90
2023-12-30T23:35:07.948Z,49.97
2023-12-30T23:37:35.147Z,50.27
2023-12-30T23:40:02.500Z,52.10
2023-12-30T23:42:29.608Z,51.40
2023-12-30T23:44:56.660Z,50.17
2023-12-30T23:47:23.756Z,53.23
2023-12-30T23:49:50.792Z,52.03
2023-12-30T23:52:18.520Z,49.17
2023-12-30T23:54:45.738Z,44.40
2023-12-30T23:57:12.815Z,45.37
2023-12-30T23:59:42.560Z,50.97
